Time;durP1;ratioP1;P1;durP2;ratioP2;P2;SDS_P1;SDS_P2;PMS_P1;PMS_P2;Temp;Humidity;BMP_temperature;BMP_pressure;BME280_temperature;BME280_humidity;BME280_pressure;Samples;Min_cycle;Max_cycle;Signal;HPM_P1;HPM_P2
2021/01/14 00:01:22;;;;;;;54.00;26.47;;;;;;;-0.13;74.39;97724.27;120020;1151;104350;-71
2021/01/14 00:03:49;;;;;;;43.60;22.10;;;;;;;-0.16;74.16;97725.29;120259;1151;104388;-68
2021/01/14 00:06:19;;;;;;;45.87;25.57;;;;;;;-0.18;74.43;97724.52;119972;1151;104377;-70
2021/01/14 00:08:47;;;;;;;43.03;22.30;;;;;;;-0.17;74.26;97722.73;119968;1151;104455;-72
2021/01/14 00:11:15;;;;;;;49.70;24.80;;;;;;;-0.17;74.46;97715.76;120000;1151;104458;-71
2021/01/14 00:13:44;;;;;;;48.40;24.20;;;;;;;-0.16;73.97;97716.58;119941;1151;104911;-72
2021/01/14 00:16:11;;;;;;;45.83;23.07;;;;;;;-0.14;74.39;97719.97;119976;1151;104380;-72
2021/01/14 00:18:39;;;;;;;45.43;23.20;;;;;;;-0.15;73.91;97715.66;119942;1151;104384;-71
2021/01/14 00:21:06;;;;;;;47.40;23.53;;;;;;;-0.12;73.77;97717.30;120051;1151;104381;-72
2021/01/14 00:23:33;;;;;;;40.55;19.40;;;;;;;-0.13;73.93;97718.22;120008;1151;104423;-73
2021/01/14 00:25:59;;;;;;;40.83;21.10;;;;;;;-0.13;74.50;97716.43;119963;1151;104849;-70
2021/01/14 00:28:26;;;;;;;42.87;21.53;;;;;;;-0.12;73.95;97712.06;120070;1151;104445;-72
2021/01/14 00:30:56;;;;;;;42.73;22.47;;;;;;;-0.11;73.91;97711.14;121506;1151;102367;-72
2021/01/14 00:33:23;;;;;;;43.03;21.20;;;;;;;-0.10;74.18;97710.22;119978;1151;104423;-72
2021/01/14 00:35:50;;;;;;;37.37;16.53;;;;;;;-0.11;74.15;97706.75;119961;1151;104354;-71
2021/01/14 00:38:16;;;;;;;35.17;16.67;;;;;;;-0.12;74.53;97706.84;120069;1151;104940;-70
2021/01/14 00:40:44;;;;;;;41.23;21.07;;;;;;;-0.14;74.59;97704.28;119937;1151;104541;-71
2021/01/14 00:43:12;;;;;;;38.53;19.10;;;;;;;-0.12;74.07;97699.00;119988;1151;104484;-72
2021/01/14 00:45:41;;;;;;;38.63;20.20;;;;;;;-0.12;74.67;97704.22;120001;1151;104493;-71
2021/01/14 00:48:08;;;;;;;39.30;18.07;;;;;;;-0.12;74.43;97704.22;120037;1151;104406;-72
2021/01/14 00:50:35;;;;;;;37.40;18.60;;;;;;;-0.12;73.99;97702.44;120063;1151;104455;-70
2021/01/14 00:53:02;;;;;;;39.80;19.87;;;;;;;-0.11;74.11;97696.29;120063;1151;104467;-71
2021/01/14 00:55:29;;;;;;;40.63;21.75;;;;;;;-0.08;74.14;97693.52;120098;1151;104569;-72
2021/01/14 00:57:56;;;;;;;40.90;20.30;;;;;;;-0.06;74.69;97694.29;120107;1151;104451;-71
2021/01/14 01:00:23;;;;;;;41.53;19.77;;;;;;;-0.05;73.94;97692.53;120128;1151;104494;-71
2021/01/14 01:02:52;;;;;;;35.57;19.23;;;;;;;-0.05;74.77;97693.37;119963;1152;104435;-72
2021/01/14 01:05:22;;;;;;;41.73;20.50;;;;;;;-0.05;74.36;97690.75;120044;1153;104427;-70
2021/01/14 01:07:57;;;;;;;41.57;20.93;;;;;;;-0.05;74.54;97693.37;120205;1153;104350;-71
2021/01/14 01:10:26;;;;;;;39.63;21.07;;;;;;;-0.06;74.09;97696.91;120024;1151;104494;-71
2021/01/14 01:12:56;;;;;;;40.00;21.10;;;;;;;-0.03;74.77;97701.14;120006;1153;104412;-70
2021/01/14 01:15:26;;;;;;;41.50;22.10;;;;;;;-0.02;74.82;97690.59;119967;1151;104433;-71
2021/01/14 01:17:54;;;;;;;36.67;20.30;;;;;;;0.03;74.43;97687.73;120198;1151;104435;-71
2021/01/14 01:20:21;;;;;;;38.15;19.52;;;;;;;0.04;74.07;97688.59;119967;1151;104596;-70
2021/01/14 01:22:48;;;;;;;36.83;19.00;;;;;;;0.06;74.91;97691.97;119967;1151;104455;-71
2021/01/14 01:25:15;;;;;;;36.98;19.00;;;;;;;0.06;74.29;97687.57;120029;1152;103976;-72
2021/01/14 01:27:42;;;;;;;35.27;17.70;;;;;;;0.08;74.75;97680.49;120004;1151;104457;-73
2021/01/14 01:30:13;;;;;;;38.37;19.67;;;;;;;0.10;75.02;97678.64;120016;1152;105037;-73
2021/01/14 01:32:41;;;;;;;36.47;18.80;;;;;;;0.13;74.45;97678.48;120112;1151;104429;-72
2021/01/14 01:35:10;;;;;;;37.90;18.43;;;;;;;0.14;74.57;97674.95;120017;1151;104376;-71
2021/01/14 01:37:38;;;;;;;33.97;17.33;;;;;;;0.17;74.44;97670.48;120994;1151;105026;-72
2021/01/14 01:40:08;;;;;;;36.73;18.07;;;;;;;0.17;74.54;97670.48;119996;1151;104455;-73
2021/01/14 01:42:35;;;;;;;36.77;18.17;;;;;;;0.19;74.30;97664.27;120120;1154;104359;-73
2021/01/14 01:45:05;;;;;;;34.40;17.00;;;;;;;0.21;74.61;97666.78;120033;1151;104602;-71
2021/01/14 01:47:36;;;;;;;38.70;20.77;;;;;;;0.22;74.73;97674.53;120073;1152;104380;-72
2021/01/14 01:50:06;;;;;;;35.03;18.30;;;;;;;0.21;74.69;97670.23;120097;1153;104513;-71
2021/01/14 01:52:36;;;;;;;37.93;18.90;;;;;;;0.22;74.23;97668.47;120101;1151;104366;-73
2021/01/14 01:55:06;;;;;;;35.57;18.67;;;;;;;0.21;74.99;97667.61;120075;1151;104481;-72
2021/01/14 01:57:35;;;;;;;38.07;19.43;;;;;;;0.20;74.43;97665.09;119952;1151;104641;-72
2021/01/14 02:00:06;;;;;;;39.43;19.90;;;;;;;0.17;74.58;97668.73;119999;1151;104471;-72
2021/01/14 02:02:33;;;;;;;41.27;20.50;;;;;;;0.17;74.46;97666.11;120015;1151;104375;-71
2021/01/14 02:05:01;;;;;;;40.47;20.00;;;;;;;0.17;74.90;97668.73;119950;1151;104386;-71
2021/01/14 02:08:02;;;;;;;41.73;19.93;;;;;;;0.18;74.67;97664.33;120142;1151;104430;-70
2021/01/14 02:10:42;;;;;;;41.20;20.93;;;;;;;0.16;74.77;97659.19;119988;1151;104553;-71
2021/01/14 02:13:29;;;;;;;39.10;20.20;;;;;;;0.18;74.49;97662.57;120044;1151;104436;-71
2021/01/14 02:16:02;;;;;;;33.90;18.10;;;;;;;0.17;74.64;97657.41;120004;1151;104361;-70
2021/01/14 02:18:33;;;;;;;39.35;19.40;;;;;;;0.14;75.07;97654.03;120859;1151;101888;-74
2021/01/14 02:21:06;;;;;;;42.13;19.90;;;;;;;0.12;74.48;97650.65;120050;1151;104421;-68
2021/01/14 02:24:06;;;;;;;41.80;20.37;;;;;;;0.12;74.19;97653.27;120007;1153;104475;-70
2021/01/14 02:26:37;;;;;;;43.23;21.60;;;;;;;0.10;74.73;97643.83;120008;1151;104464;-73
2021/01/14 02:29:06;;;;;;;37.93;18.13;;;;;;;0.05;74.36;97638.82;119977;1151;104534;-72
2021/01/14 02:31:33;;;;;;;35.13;15.47;;;;;;;0.01;74.59;97641.69;120053;1151;104353;-72
2021/01/14 02:34:03;;;;;;;37.27;19.13;;;;;;;-0.04;74.47;97641.94;120043;1149;104439;-70
2021/01/14 02:36:30;;;;;;;37.23;19.30;;;;;;;-0.06;74.59;97639.39;119955;1151;104499;-68
2021/01/14 02:38:57;;;;;;;36.70;18.33;;;;;;;-0.04;74.78;97631.48;119995;1151;104477;-70
2021/01/14 02:41:24;;;;;;;38.57;19.17;;;;;;;-0.09;74.54;97629.09;119985;1151;104489;-71
2021/01/14 02:43:51;;;;;;;38.03;18.70;;;;;;;-0.10;74.33;97634.42;119999;1153;104452;-71
2021/01/14 02:46:21;;;;;;;36.63;18.77;;;;;;;-0.11;75.02;97635.34;120064;1151;104455;-71
2021/01/14 02:49:03;;;;;;;36.50;19.17;;;;;;;-0.10;74.77;97631.80;120059;1151;104612;-72
2021/01/14 02:51:43;;;;;;;32.43;16.83;;;;;;;-0.13;75.03;97631.96;120083;1150;104476;-72
2021/01/14 02:54:12;;;;;;;36.63;17.83;;;;;;;-0.14;74.68;97627.66;120149;1151;104356;-72
2021/01/14 02:56:40;;;;;;;38.27;19.17;;;;;;;-0.11;74.80;97623.10;120168;1151;104461;-72
2021/01/14 02:59:09;;;;;;;32.07;17.17;;;;;;;-0.12;75.05;97624.02;120000;1152;104380;-72
2021/01/14 03:01:43;;;;;;;34.70;17.70;;;;;;;-0.13;75.30;97619.72;120148;1151;104466;-73
2021/01/14 03:04:10;;;;;;;38.30;19.10;;;;;;;-0.10;75.26;97623.96;120097;1152;104452;-71
2021/01/14 03:06:40;;;;;;;33.65;16.90;;;;;;;-0.10;74.85;97624.80;120036;1151;104450;-72
2021/01/14 03:09:06;;;;;;;37.93;19.23;;;;;;;-0.09;75.15;97626.48;120023;1153;104427;-73
2021/01/14 03:11:37;;;;;;;37.50;19.37;;;;;;;-0.05;74.66;97628.02;120011;1151;104567;-72
2021/01/14 03:14:04;;;;;;;36.05;18.00;;;;;;;-0.03;75.03;97628.78;119973;1153;104483;-72
2021/01/14 03:16:37;;;;;;;30.72;15.98;;;;;;;-0.04;75.09;97632.31;120046;1153;104439;-72
2021/01/14 03:19:04;;;;;;;;;;;;;;;-0.06;74.88;97621.09;120044;1153;104423;-72
2021/01/14 03:21:31;;;;;;;35.03;17.60;;;;;;;-0.08;74.56;97630.78;120007;1151;104481;-71
2021/01/14 03:23:59;;;;;;;34.65;18.45;;;;;;;-0.07;75.16;97623.80;120180;1151;104462;-71
2021/01/14 03:26:26;;;;;;;36.37;19.10;;;;;;;-0.06;74.97;97620.27;120747;1151;104377;-71
2021/01/14 03:28:53;;;;;;;40.13;20.70;;;;;;;-0.04;75.11;97615.80;120104;1151;104873;-68
2021/01/14 03:31:20;;;;;;;36.97;19.90;;;;;;;-0.01;75.26;97618.26;120059;1153;104381;-71
2021/01/14 03:33:49;;;;;;;36.23;17.57;;;;;;;-0.02;75.39;97613.95;120005;1151;104423;-71
2021/01/14 03:36:18;;;;;;;37.90;20.30;;;;;;;0.01;75.39;97620.78;120053;1151;104397;-71
2021/01/14 03:38:48;;;;;;;37.90;19.43;;;;;;;0.01;75.19;97616.37;119989;1151;104414;-70
2021/01/14 03:41:19;;;;;;;39.40;19.60;;;;;;;0.03;75.06;97611.08;120093;1151;104459;-72
2021/01/14 03:43:48;;;;;;;34.17;18.17;;;;;;;0.05;75.27;97617.91;120037;1151;104460;-72
2021/01/14 03:46:20;;;;;;;35.73;17.50;;;;;;;0.05;74.87;97612.67;119979;1151;104457;-72
2021/01/14 03:48:48;;;;;;;33.03;16.83;;;;;;;0.04;75.19;97616.21;122354;1151;102158;-72
2021/01/14 03:51:20;;;;;;;34.55;16.75;;;;;;;0.05;75.35;97610.06;120209;1152;104544;-71
2021/01/14 03:53:51;;;;;;;33.57;18.00;;;;;;;0.06;74.69;97616.98;119974;1152;104458;-71
2021/01/14 03:56:22;;;;;;;33.57;17.27;;;;;;;0.07;75.04;97602.15;120049;1151;104386;-72
2021/01/14 03:58:49;;;;;;;34.40;17.33;;;;;;;0.08;74.91;97609.90;119985;1151;104541;-72
2021/01/14 04:01:15;;;;;;;34.33;17.47;;;;;;;0.10;74.93;97610.66;120034;1151;104354;-73
2021/01/14 04:03:43;;;;;;;35.35;18.45;;;;;;;0.12;75.12;97605.37;120024;1151;104356;-74
2021/01/14 04:06:12;;;;;;;33.23;17.87;;;;;;;0.14;75.03;97612.19;120007;1152;104379;-72
2021/01/14 04:08:40;;;;;;;32.27;16.27;;;;;;;0.14;74.94;97599.11;120017;1151;104456;-72
2021/01/14 04:11:13;;;;;;;33.55;16.25;;;;;;;0.11;75.07;97603.68;119986;1151;104452;-69
2021/01/14 04:13:41;;;;;;;33.23;16.50;;;;;;;0.09;75.16;97601.13;120025;1153;104465;-71
2021/01/14 04:16:14;;;;;;;31.33;15.47;;;;;;;0.10;74.79;97612.45;120022;1151;104994;-69
2021/01/14 04:18:42;;;;;;;31.05;16.25;;;;;;;0.08;75.06;97609.90;119937;1153;104383;-70
2021/01/14 04:21:09;;;;;;;33.23;17.40;;;;;;;0.09;75.08;97601.13;119924;1151;104374;-71
2021/01/14 04:23:36;;;;;;;36.00;17.70;;;;;;;0.11;75.23;97606.30;120371;1152;104354;-70
2021/01/14 04:26:04;;;;;;;33.83;17.23;;;;;;;0.13;75.53;97601.83;119987;1151;104400;-70
2021/01/14 04:28:31;;;;;;;34.00;16.27;;;;;;;0.09;75.13;97608.14;120032;1153;104458;-70
2021/01/14 04:30:58;;;;;;;34.00;18.57;;;;;;;0.09;75.14;97601.13;120391;1153;104478;-70
2021/01/14 04:33:27;;;;;;;36.03;18.93;;;;;;;0.10;74.99;97605.43;120282;1151;104383;-71
2021/01/14 04:35:56;;;;;;;30.50;16.53;;;;;;;0.09;75.21;97595.07;119986;1151;104454;-71
2021/01/14 04:38:25;;;;;;;36.80;18.63;;;;;;;0.07;75.03;97600.36;120011;1151;104358;-71
2021/01/14 04:40:57;;;;;;;34.43;18.33;;;;;;;0.06;75.43;97590.00;119965;1153;104361;-70
2021/01/14 04:43:28;;;;;;;32.67;17.37;;;;;;;0.06;74.89;97600.46;119974;1151;104771;-72
2021/01/14 04:46:04;;;;;;;33.17;18.17;;;;;;;0.07;74.91;97600.36;120168;1151;104455;-70
2021/01/14 04:48:37;;;;;;;35.25;18.55;;;;;;;0.09;75.09;97595.91;119992;1151;104448;-70
2021/01/14 04:51:19;;;;;;;34.40;19.47;;;;;;;0.12;75.16;97597.52;120537;1151;104429;-73
2021/01/14 04:53:50;;;;;;;34.40;18.40;;;;;;;0.12;75.19;97602.75;120014;1151;104527;-71
2021/01/14 04:56:19;;;;;;;36.87;18.60;;;;;;;0.15;75.10;97594.75;119939;1151;104455;-70
2021/01/14 04:58:49;;;;;;;41.30;20.13;;;;;;;0.18;75.46;97596.34;120654;1151;104352;-71
2021/01/14 05:01:19;;;;;;;61.07;30.10;;;;;;;0.20;75.53;97594.48;119970;1153;104388;-75
2021/01/14 05:03:49;;;;;;;78.60;35.00;;;;;;;0.24;75.12;97593.39;119964;1151;104375;-78
2021/01/14 05:06:21;;;;;;;54.70;24.95;;;;;;;0.24;75.32;97588.99;119935;1153;104506;-73
2021/01/14 05:09:02;;;;;;;35.27;16.67;;;;;;;0.17;75.37;97589.42;119904;1153;104550;-70
2021/01/14 05:11:44;;;;;;;32.67;15.03;;;;;;;0.02;74.97;97597.16;120688;1150;104450;-76
2021/01/14 05:14:11;;;;;;;30.13;15.13;;;;;;;-0.09;74.85;97594.28;120030;1152;104510;-72
2021/01/14 05:16:41;;;;;;;29.70;15.90;;;;;;;-0.16;75.28;97598.97;120014;1151;104430;-68
2021/01/14 05:19:08;;;;;;;35.30;16.40;;;;;;;-0.26;75.24;97593.39;119951;1153;105010;-72
2021/01/14 05:21:39;;;;;;;32.13;15.53;;;;;;;-0.34;74.80;97596.42;119915;1153;104478;-71
2021/01/14 05:24:16;;;;;;;29.87;14.27;;;;;;;-0.36;75.40;97593.03;119988;1151;104384;-70
2021/01/14 05:26:44;;;;;;;37.40;16.10;;;;;;;-0.40;75.12;97593.26;120514;1152;104456;-69
2021/01/14 05:29:19;;;;;;;33.97;15.63;;;;;;;-0.41;75.08;97586.38;119874;1148;104500;-69
2021/01/14 05:31:48;;;;;;;30.93;16.07;;;;;;;-0.39;75.23;97589.72;119661;1152;104460;-70
2021/01/14 05:34:18;;;;;;;32.00;16.13;;;;;;;-0.37;75.51;97595.71;119830;1153;104487;-69
2021/01/14 05:36:56;;;;;;;28.30;14.50;;;;;;;-0.37;74.80;97593.09;119886;1151;104381;-69
2021/01/14 05:39:24;;;;;;;27.13;12.60;;;;;;;-0.38;75.13;97594.02;120033;1153;104369;-70
2021/01/14 05:41:54;;;;;;;31.80;15.63;;;;;;;-0.39;75.51;97590.58;119867;1154;104361;-69
2021/01/14 05:44:38;;;;;;;31.20;16.60;;;;;;;-0.36;75.39;97597.41;120145;1151;104428;-69
2021/01/14 05:47:17;;;;;;;;;;;;;;;-0.40;75.06;97606.32;120095;1151;104357;-69
2021/01/14 05:49:57;;;;;;;28.93;14.27;;;;;;;-0.42;75.19;97595.96;119917;1151;104352;-71
2021/01/14 05:52:25;;;;;;;34.63;17.70;;;;;;;-0.48;75.91;97598.89;120093;1151;104853;-71
2021/01/14 05:55:09;;;;;;;36.33;20.07;;;;;;;-0.47;75.79;97603.19;120428;1151;104455;-68
2021/01/14 05:57:38;;;;;;;38.33;20.37;;;;;;;-0.45;75.11;97606.57;120096;1151;104516;-70
2021/01/14 06:00:14;;;;;;;36.57;18.03;;;;;;;-0.47;75.62;97608.41;119614;1151;104382;-68
2021/01/14 06:02:41;;;;;;;38.17;20.50;;;;;;;-0.50;75.77;97604.20;121996;1151;102956;-70
2021/01/14 06:05:33;;;;;;;36.13;19.27;;;;;;;-0.51;75.86;97605.13;121974;1151;102703;-70
2021/01/14 06:08:06;;;;;;;43.35;24.25;;;;;;;-0.49;75.01;97612.88;120126;1151;104430;-70
2021/01/14 06:10:38;;;;;;;43.27;22.13;;;;;;;-0.47;75.78;97609.27;120032;1151;104563;-70
2021/01/14 06:13:07;;;;;;;46.07;23.97;;;;;;;-0.47;75.35;97611.89;120076;1151;104508;-67
2021/01/14 06:15:35;;;;;;;42.93;22.97;;;;;;;-0.47;75.74;97611.02;120059;1154;104455;-68
2021/01/14 06:18:10;;;;;;;41.75;21.90;;;;;;;-0.47;75.54;97611.02;120103;1151;104442;-68
2021/01/14 06:20:55;;;;;;;46.90;25.37;;;;;;;-0.46;75.88;97615.33;120089;1151;104384;-69
2021/01/14 06:23:24;;;;;;;42.20;23.67;;;;;;;-0.47;75.84;97609.27;120059;1151;104378;-69
2021/01/14 06:25:56;;;;;;;38.33;19.97;;;;;;;-0.47;75.18;97611.02;120043;1151;105983;-69
2021/01/14 06:28:35;;;;;;;47.23;25.10;;;;;;;-0.50;75.82;97621.63;119999;1151;104455;-69
2021/01/14 06:31:08;;;;;;;40.30;22.03;;;;;;;-0.44;75.53;97623.10;119972;1151;104457;-66
2021/01/14 06:33:40;;;;;;;38.97;20.07;;;;;;;-0.46;75.59;97617.94;120086;1151;104451;-70
2021/01/14 06:36:12;;;;;;;36.27;19.97;;;;;;;-0.47;75.47;97621.47;120072;1151;104371;-69
2021/01/14 06:38:41;;;;;;;31.23;16.00;;;;;;;-0.48;75.43;97622.40;119997;1151;105148;-71
2021/01/14 06:41:39;;;;;;;33.87;16.63;;;;;;;-0.47;75.93;97624.95;120090;1151;104351;-69
2021/01/14 06:44:11;;;;;;;31.90;15.60;;;;;;;-0.49;76.04;97628.55;120000;1151;104457;-70
2021/01/14 06:46:42;;;;;;;29.40;16.47;;;;;;;-0.50;75.22;97632.94;120071;1151;104529;-70
2021/01/14 06:49:13;;;;;;;31.83;16.93;;;;;;;-0.47;75.52;97637.15;120037;1151;104415;-71
2021/01/14 06:51:59;;;;;;;31.03;14.77;;;;;;;-0.45;75.35;97637.92;120022;1151;104380;-70
2021/01/14 06:54:39;;;;;;;30.37;14.97;;;;;;;-0.43;75.72;97641.30;120083;1153;104452;-69
2021/01/14 06:57:15;;;;;;;31.70;15.90;;;;;;;-0.43;75.17;97637.86;120062;1151;104354;-70
2021/01/14 06:59:45;;;;;;;34.20;16.37;;;;;;;-0.40;75.53;97645.51;120061;1153;104460;-70
2021/01/14 07:02:18;;;;;;;37.93;15.23;;;;;;;-0.37;76.08;97647.97;120074;1151;104508;-72
2021/01/14 07:04:45;;;;;;;29.47;14.30;;;;;;;-0.38;75.95;97654.11;120011;1151;104430;-69
2021/01/14 07:07:27;;;;;;;27.48;14.53;;;;;;;-0.37;75.95;97654.05;120113;1153;104498;-70
2021/01/14 07:10:03;;;;;;;34.60;16.20;;;;;;;-0.33;75.56;97659.95;120083;1151;104463;-67
2021/01/14 07:12:40;;;;;;;32.17;14.30;;;;;;;-0.32;76.05;97659.03;120062;1151;104426;-69
2021/01/14 07:15:14;;;;;;;32.00;15.53;;;;;;;-0.33;75.62;97658.20;120046;1151;104489;-71
2021/01/14 07:17:45;;;;;;;33.20;16.27;;;;;;;-0.29;76.00;97658.88;119993;1152;104415;-69
2021/01/14 07:20:16;;;;;;;34.13;16.00;;;;;;;-0.24;76.08;97667.33;120041;1151;104542;-67
2021/01/14 07:23:11;;;;;;;35.27;15.93;;;;;;;-0.18;76.15;97667.02;120033;1151;104461;-68
2021/01/14 07:25:40;;;;;;;35.67;18.07;;;;;;;-0.12;75.79;97678.91;120020;1153;104360;-68
2021/01/14 07:28:11;;;;;;;34.40;17.30;;;;;;;-0.07;76.02;97682.14;120040;1153;104362;-69
2021/01/14 07:30:40;;;;;;;33.40;17.23;;;;;;;-0.03;76.02;97683.67;120021;1151;104566;-69
2021/01/14 07:33:12;;;;;;;34.30;18.33;;;;;;;0.03;75.73;97684.28;120036;1153;104456;-69
2021/01/14 07:35:45;;;;;;;32.53;17.60;;;;;;;0.06;75.87;97681.52;120016;1152;104492;-69
2021/01/14 07:38:16;;;;;;;37.30;18.62;;;;;;;0.10;75.82;97680.44;120054;1151;104350;-69
2021/01/14 07:40:59;;;;;;;31.60;17.60;;;;;;;0.10;75.64;97677.81;120079;1151;104364;-67
2021/01/14 07:43:32;;;;;;;37.37;19.30;;;;;;;0.07;75.77;97685.81;119998;1151;104448;-68
2021/01/14 07:46:21;;;;;;;31.47;15.33;;;;;;;0.01;75.50;97688.75;119993;1153;104397;-70
2021/01/14 07:48:52;;;;;;;34.30;17.73;;;;;;;-0.04;75.93;97691.61;120010;1151;104359;-70
2021/01/14 07:51:42;;;;;;;34.13;17.70;;;;;;;-0.05;75.84;97698.59;120031;1151;104464;-69
2021/01/14 07:54:09;;;;;;;35.00;17.50;;;;;;;-0.03;75.54;97701.97;119993;1153;105272;-69
2021/01/14 07:56:51;;;;;;;35.17;18.70;;;;;;;-0.01;75.73;97700.13;120016;1151;104524;-69
2021/01/14 07:59:30;;;;;;;35.03;17.67;;;;;;;0.03;75.84;97708.64;120045;1151;104397;-70
2021/01/14 08:02:09;;;;;;;34.27;17.20;;;;;;;0.07;76.24;97704.95;120049;1151;104452;-70
2021/01/14 08:04:49;;;;;;;35.97;18.20;;;;;;;0.10;76.28;97699.56;120118;1151;104486;-69
2021/01/14 08:07:28;;;;;;;33.60;18.03;;;;;;;0.14;75.70;97700.27;120033;1151;104357;-71
2021/01/14 08:09:57;;;;;;;37.27;18.90;;;;;;;0.17;75.76;97713.19;120023;1151;104854;-70
2021/01/14 08:12:32;;;;;;;38.43;19.43;;;;;;;0.22;75.73;97715.55;120096;1151;104426;-69
2021/01/14 08:15:02;;;;;;;39.23;21.43;;;;;;;0.26;76.04;97720.52;120018;1151;104447;-69
2021/01/14 08:17:29;;;;;;;37.77;18.70;;;;;;;0.32;75.76;97715.91;120011;1151;104455;-69
2021/01/14 08:19:56;;;;;;;36.80;20.30;;;;;;;0.36;75.71;97720.91;120014;1151;104502;-70
2021/01/14 08:22:26;;;;;;;38.70;21.30;;;;;;;0.40;76.01;97714.59;119967;1151;104506;-70
2021/01/14 08:25:02;;;;;;;37.97;20.33;;;;;;;0.47;75.82;97720.33;119991;1151;104503;-70
2021/01/14 08:27:36;;;;;;;39.50;21.43;;;;;;;0.50;76.05;97724.55;119983;1153;104447;-71
2021/01/14 08:30:08;;;;;;;41.80;22.23;;;;;;;0.53;76.04;97729.61;119995;1151;104512;-69
2021/01/14 08:32:46;;;;;;;44.17;24.07;;;;;;;0.55;76.08;97725.15;120036;1152;104560;-70
2021/01/14 08:35:38;;;;;;;44.20;24.25;;;;;;;0.56;76.17;97727.70;119994;1151;104449;-70
2021/01/14 08:38:09;;;;;;;44.50;24.40;;;;;;;0.57;75.84;97734.63;120047;1151;105093;-70
2021/01/14 08:40:42;;;;;;;46.07;24.87;;;;;;;0.61;75.99;97740.52;119990;1151;104465;-69
2021/01/14 08:43:16;;;;;;;42.90;23.13;;;;;;;0.65;75.92;97739.44;120060;1151;104423;-71
2021/01/14 08:45:55;;;;;;;42.80;24.13;;;;;;;0.66;75.72;97740.27;119988;1151;104493;-70
2021/01/14 08:48:32;;;;;;;72.90;41.47;;;;;;;0.70;76.14;97745.27;119958;1151;104452;-71
2021/01/14 08:51:05;;;;;;;45.40;24.90;;;;;;;0.74;75.87;97738.95;119972;1151;104480;-69
2021/01/14 08:53:37;;;;;;;42.35;21.77;;;;;;;0.75;75.64;97752.86;119984;1151;104914;-70
2021/01/14 08:56:10;;;;;;;40.83;22.67;;;;;;;0.75;75.95;97750.25;119981;1151;104402;-70
2021/01/14 08:58:45;;;;;;;44.80;24.75;;;;;;;0.77;75.74;97752.80;119986;1151;104519;-69
2021/01/14 09:01:24;;;;;;;42.90;22.27;;;;;;;0.77;75.55;97760.66;119988;1151;104429;-70
2021/01/14 09:03:55;;;;;;;40.77;22.63;;;;;;;0.77;75.90;97763.27;120003;1151;104354;-70
2021/01/14 09:06:40;;;;;;;45.85;25.57;;;;;;;0.78;75.92;97759.73;120020;1151;104464;-71
2021/01/14 09:09:17;;;;;;;48.42;25.77;;;;;;;0.76;75.71;97766.81;120007;1151;104478;-70
2021/01/14 09:11:49;;;;;;;53.30;29.10;;;;;;;0.72;75.90;97764.36;120024;1151;104473;-72
2021/01/14 09:14:18;;;;;;;51.45;29.85;;;;;;;0.71;75.75;97765.28;119926;1152;104946;-70
2021/01/14 09:16:49;;;;;;;55.37;29.43;;;;;;;0.71;75.73;97759.19;119990;1151;104381;-69
2021/01/14 09:19:27;;;;;;;53.85;29.25;;;;;;;0.69;75.85;97763.66;119948;1151;104386;-71
2021/01/14 09:21:56;;;;;;;49.37;26.37;;;;;;;0.72;75.67;97768.73;119981;1151;104380;-69
2021/01/14 09:24:23;;;;;;;44.40;25.20;;;;;;;0.73;75.43;97773.91;119975;1151;104534;-71
2021/01/14 09:26:55;;;;;;;44.13;24.50;;;;;;;0.77;75.67;97774.57;119976;1151;104452;-70
2021/01/14 09:29:31;;;;;;;49.17;26.90;;;;;;;0.84;75.71;97782.93;119988;1151;104431;-71
2021/01/14 09:31:58;;;;;;;46.80;25.97;;;;;;;0.91;76.37;97779.06;119977;1151;104564;-70
2021/01/14 09:34:28;;;;;;;49.07;26.87;;;;;;;0.97;76.08;97780.52;120052;1151;104380;-71
2021/01/14 09:36:58;;;;;;;48.90;28.57;;;;;;;1.03;75.92;97788.02;120022;1151;104634;-71
2021/01/14 09:39:26;;;;;;;50.57;29.17;;;;;;;1.08;76.15;97778.14;119971;1151;104357;-71
2021/01/14 09:41:56;;;;;;;52.30;28.43;;;;;;;1.11;75.92;97777.97;120025;1151;104452;-71
2021/01/14 09:44:30;;;;;;;51.17;29.00;;;;;;;1.15;76.22;97779.50;120003;1151;104462;-69
2021/01/14 09:46:58;;;;;;;49.87;28.70;;;;;;;1.18;75.66;97784.57;120025;1151;104455;-70
2021/01/14 09:49:27;;;;;;;53.73;31.03;;;;;;;1.20;76.02;97784.50;120018;1151;104354;-70
2021/01/14 09:51:54;;;;;;;79.13;42.93;;;;;;;1.24;76.10;97790.41;119974;1151;106069;-71
2021/01/14 09:54:24;;;;;;;49.20;27.57;;;;;;;1.25;75.94;97798.16;120017;1151;104429;-70
2021/01/14 09:56:57;;;;;;;49.15;28.55;;;;;;;1.23;75.98;97796.57;120019;1151;104380;-70
2021/01/14 09:59:43;;;;;;;44.38;24.63;;;;;;;1.22;75.68;97810.59;119987;1151;104484;-72
2021/01/14 10:02:16;;;;;;;46.10;26.57;;;;;;;1.20;75.72;97808.08;120000;1151;104481;-70
2021/01/14 10:04:52;;;;;;;51.97;26.57;;;;;;;1.20;75.95;97810.70;120000;1151;104375;-71
2021/01/14 10:07:20;;;;;;;48.57;26.47;;;;;;;1.21;76.14;97815.00;120033;1151;104354;-71
2021/01/14 10:09:54;;;;;;;52.55;27.75;;;;;;;1.22;75.99;97814.08;119989;1152;104402;-72
2021/01/14 10:12:21;;;;;;;50.78;26.80;;;;;;;1.24;75.67;97816.59;120073;1151;104378;-72
2021/01/14 10:14:48;;;;;;;47.45;27.60;;;;;;;1.20;76.08;97815.94;119992;1151;104525;-74
2021/01/14 10:17:18;;;;;;;46.97;26.23;;;;;;;1.20;76.04;97815.94;119996;1151;104407;-71
2021/01/14 10:19:49;;;;;;;46.97;26.27;;;;;;;1.21;75.91;97815.00;119996;1151;104360;-71
2021/01/14 10:22:24;;;;;;;51.75;28.90;;;;;;;1.24;75.38;97816.59;120115;1151;104353;-71
2021/01/14 10:25:07;;;;;;;58.80;31.60;;;;;;;1.25;76.19;97821.73;120024;1151;104406;-72
2021/01/14 10:27:37;;;;;;;61.40;40.43;;;;;;;1.26;75.86;97817.36;119993;1151;104418;-72
2021/01/14 10:30:21;;;;;;;63.20;35.70;;;;;;;1.29;75.96;97825.89;119923;1151;104384;-71
2021/01/14 10:32:49;;;;;;;59.17;36.57;;;;;;;1.33;75.34;97823.95;120016;1151;104356;-72
2021/01/14 10:35:26;;;;;;;61.17;35.00;;;;;;;1.37;75.80;97833.34;120028;1151;104470;-71
2021/01/14 10:38:15;;;;;;;57.57;35.20;;;;;;;1.40;75.52;97841.04;119943;1151;104377;-72
2021/01/14 10:40:47;;;;;;;53.90;30.80;;;;;;;1.43;75.80;97840.84;120048;1151;104631;-70
2021/01/14 10:43:34;;;;;;;55.57;31.43;;;;;;;1.44;75.48;97839.08;119977;1151;104490;-71
2021/01/14 10:46:07;;;;;;;94.90;57.70;;;;;;;1.52;76.14;97834.27;120013;1151;104460;-72
2021/01/14 10:48:40;;;;;;;62.85;36.50;;;;;;;1.62;76.16;97834.59;119981;1151;104380;-71
2021/01/14 10:51:08;;;;;;;54.10;31.03;;;;;;;1.68;75.46;97841.25;120007;1151;104433;-73
2021/01/14 10:53:41;;;;;;;52.43;28.53;;;;;;;1.72;75.53;97842.77;119980;1153;104544;-73
2021/01/14 10:56:15;;;;;;;47.07;25.23;;;;;;;1.73;75.43;97841.84;119908;1151;104375;-73
2021/01/14 10:58:42;;;;;;;49.43;24.53;;;;;;;1.73;76.07;97841.84;120067;1151;104355;-72
2021/01/14 11:01:20;;;;;;;45.07;25.90;;;;;;;1.77;75.77;97840.74;120028;1153;104360;-72
2021/01/14 11:03:50;;;;;;;44.70;24.40;;;;;;;1.78;74.98;97842.44;120041;1153;104457;-73
2021/01/14 11:06:36;;;;;;;40.70;21.97;;;;;;;1.78;75.69;97838.05;120011;1151;104622;-70
2021/01/14 11:09:11;;;;;;;41.23;21.53;;;;;;;1.80;75.29;97843.19;119967;1151;104396;-72
2021/01/14 11:11:38;;;;;;;40.40;20.77;;;;;;;1.82;75.48;97841.33;120071;1151;104473;-71
2021/01/14 11:14:07;;;;;;;40.10;20.90;;;;;;;1.86;75.13;97849.86;120057;1151;104379;-71
2021/01/14 11:16:34;;;;;;;40.57;21.80;;;;;;;1.84;75.36;97846.47;120073;1151;104451;-72
2021/01/14 11:19:04;;;;;;;40.70;22.43;;;;;;;1.85;75.48;97848.16;120074;1151;104479;-71
2021/01/14 11:21:38;;;;;;;36.83;19.43;;;;;;;1.85;75.10;97848.16;119976;1151;104363;-74
2021/01/14 11:24:08;;;;;;;36.35;19.80;;;;;;;1.86;75.05;97855.96;120034;1151;104359;-74
2021/01/14 11:26:35;;;;;;;34.87;18.13;;;;;;;1.86;75.54;97845.47;120040;1151;104458;-71
2021/01/14 11:29:05;;;;;;;38.27;20.37;;;;;;;1.87;75.08;97855.03;119985;1153;104473;-71